Olathe, KS

8:58 AM CST on December 04, 2016 (GMT -0600)
| | Change Station

Elev -9999 ft 0.00 °N, 0.00 °E | Updated

Cloudy
Cloudy
40 °F
Feels Like 33 °F
N
10
Wind Variable Wind from West
Gusts mph

Today
High -- | Low -- °F
--% Chance of Precip.
Yesterday
High -- | Low -- °F
Precip. -- in
Pressure 30.03 in
Visibility 10.0 miles
Clouds Overcast 1300 ft
Windchill 33 °F
Dew Point 35 °F
Humidity 84%
Rainfall --
Snow Depth Not available.
7:22 AM 4:57 PM
Waxing Crescent, 23% visible
METAR KIXD 041453Z 27005KT 10SM OVC013 03/02 A3002 RMK AO2 UPB1356E09B27E33RAB09E27 SLP169 P0002 60011 T00280022 55001
Pressure 30.03 in
Visibility 10.0 miles
Clouds Overcast 1300 ft
Windchill 33 °F
Dew Point 35 °F
Humidity 84%
Rainfall --
Snow Depth Not available.
7:22 AM 4:57 PM
Waxing Crescent, 23% visible
METAR KIXD 041453Z 27005KT 10SM OVC013 03/02 A3002 RMK AO2 UPB1356E09B27E33RAB09E27 SLP169 P0002 60011 T00280022 55001

10-Day Weather Forecast

Almanac

Astronomy

Dec. 04, 2016 Rise Set
Actual Time
Civil Twilight
Nautical Twilight
Astronomical Twilight
Moon
Length of Visible Light
Length of Day
Tomorrow will be .
, % of the Moon is Illuminated

Today's Extremes

State Highs State Lows

Community

WunderPhotos

Upload Photos

1,955,602 photos uploaded!

WunderBlog® & News

Nearby

Air Quality

  Air Quality AQ Index Pollutant
Not available.

Snow Depth

Station Depth Elevation

Earthquake Activity

City Distance Mag. Time & Date
Minimum magnitude displayed is 2.5.

Coastal Water Temperatures

Place Temperature

Stations

Nearby Weather Stations

Station Location Temp. Windchill Dew Point Humidity Wind Precip. Elev Updated Type
                   

Watches & Warnings

There are currently no watches in effect.